createdAt,value
2022-11-21T00:00:01.034Z,23.60
2022-11-21T00:06:19.014Z,23.80
2022-11-21T00:12:37.173Z,24.00
2022-11-21T00:18:46.221Z,23.80
2022-11-21T00:25:00.779Z,23.50
2022-11-21T00:31:14.718Z,23.60
2022-11-21T00:37:29.346Z,23.80
2022-11-21T00:43:47.711Z,23.70
2022-11-21T00:50:05.927Z,23.60
2022-11-21T00:56:22.114Z,23.90
2022-11-21T01:02:36.576Z,23.80
2022-11-21T01:08:50.070Z,23.50
2022-11-21T01:15:06.843Z,23.70
2022-11-21T01:21:22.536Z,23.90
2022-11-21T01:27:36.104Z,23.70
2022-11-21T01:33:47.027Z,23.40
2022-11-21T01:40:04.046Z,23.20
2022-11-21T01:46:22.775Z,23.10
2022-11-21T01:52:39.391Z,23.00
2022-11-21T01:58:52.733Z,23.00
2022-11-21T02:05:06.691Z,22.90
2022-11-21T02:11:23.997Z,22.90
2022-11-21T02:17:42.937Z,22.80
2022-11-21T02:24:00.753Z,22.70
2022-11-21T02:30:18.909Z,22.70
2022-11-21T02:36:42.312Z,22.60
2022-11-21T02:42:58.754Z,22.60
2022-11-21T02:49:12.702Z,22.50
2022-11-21T02:55:28.701Z,22.40
2022-11-21T03:01:45.340Z,22.40
2022-11-21T03:08:00.126Z,22.50
2022-11-21T03:14:08.831Z,22.40
2022-11-21T03:20:21.776Z,22.30
2022-11-21T03:26:33.646Z,22.10
2022-11-21T03:32:54.126Z,22.10
2022-11-21T03:39:07.778Z,22.20
2022-11-21T03:45:22.885Z,22.10
2022-11-21T03:51:37.341Z,22.00
2022-11-21T03:57:53.312Z,22.00
2022-11-21T04:04:03.233Z,22.00
2022-11-21T04:10:20.767Z,22.00
2022-11-21T04:16:35.164Z,22.00
2022-11-21T04:22:49.033Z,22.30
2022-11-21T04:29:02.461Z,22.50
2022-11-21T04:35:19.772Z,22.40
2022-11-21T04:41:37.863Z,22.10
2022-11-21T04:47:53.432Z,22.00
2022-11-21T04:54:09.064Z,22.30
2022-11-21T05:00:26.748Z,22.50
2022-11-21T05:06:44.890Z,22.60
2022-11-21T05:13:25.954Z,22.40
2022-11-21T05:19:41.771Z,22.10
2022-11-21T05:25:57.836Z,22.00
2022-11-21T05:32:13.945Z,22.00
2022-11-21T05:38:27.450Z,22.20
2022-11-21T05:44:46.261Z,22.50
2022-11-21T05:51:04.200Z,22.50
2022-11-21T05:57:20.346Z,22.20
2022-11-21T06:03:37.849Z,22.00
2022-11-21T06:09:51.240Z,22.30
2022-11-21T06:16:09.280Z,22.50
2022-11-21T06:22:24.335Z,22.30
2022-11-21T06:28:39.536Z,22.20
2022-11-21T06:34:53.245Z,22.40
2022-11-21T06:41:02.444Z,22.50
2022-11-21T06:47:13.624Z,22.30
2022-11-21T06:53:29.367Z,22.20
2022-11-21T06:59:45.403Z,22.40
2022-11-21T07:06:00.393Z,22.50
2022-11-21T07:12:30.195Z,22.30
2022-11-21T07:18:42.501Z,22.40
2022-11-21T07:24:53.518Z,22.60
2022-11-21T07:31:13.556Z,22.50
2022-11-21T07:37:24.935Z,22.20
2022-11-21T07:43:39.463Z,22.30
2022-11-21T07:49:56.765Z,22.60
2022-11-21T07:56:14.693Z,22.70
2022-11-21T08:02:29.782Z,22.60
2022-11-21T08:08:47.290Z,22.30
2022-11-21T08:14:59.421Z,22.20
2022-11-21T08:21:19.796Z,22.40
2022-11-21T08:27:29.772Z,22.50
2022-11-21T08:33:41.895Z,22.30
2022-11-21T08:39:54.695Z,22.10
2022-11-21T08:46:10.110Z,22.40
2022-11-21T08:52:23.865Z,22.60
2022-11-21T08:58:34.895Z,22.60
2022-11-21T09:04:51.193Z,22.30
2022-11-21T09:11:02.267Z,22.10
2022-11-21T09:17:32.132Z,22.20
2022-11-21T09:23:48.960Z,22.50
2022-11-21T09:30:07.107Z,22.70
2022-11-21T09:36:21.555Z,22.60
2022-11-21T09:42:53.188Z,22.40
2022-11-21T09:49:10.132Z,22.10
2022-11-21T09:55:30.723Z,22.20
2022-11-21T10:01:47.198Z,22.50
2022-11-21T10:08:03.306Z,22.70
2022-11-21T10:14:23.452Z,22.60
2022-11-21T10:20:55.845Z,22.30
2022-11-21T10:27:13.370Z,22.30
2022-11-21T10:33:27.964Z,22.50
2022-11-21T10:46:03.822Z,22.30
2022-11-21T10:52:20.277Z,22.20
2022-11-21T10:59:04.091Z,22.40
2022-11-21T11:12:04.400Z,22.20
2022-11-21T11:18:26.301Z,22.40
2022-11-21T11:24:40.234Z,22.60
2022-11-21T11:30:56.376Z,22.30
2022-11-21T11:37:18.913Z,22.10
2022-11-21T11:43:53.362Z,22.30
2022-11-21T11:50:20.781Z,22.50
2022-11-21T11:56:33.177Z,22.60
2022-11-21T12:02:52.963Z,22.40
2022-11-21T12:09:12.879Z,22.20
2022-11-21T12:15:41.974Z,22.40
2022-11-21T12:21:56.414Z,22.60
2022-11-21T12:28:12.442Z,22.80
2022-11-21T12:34:35.703Z,23.00
2022-11-21T12:40:59.092Z,23.30
2022-11-21T12:47:20.517Z,23.50
2022-11-21T12:53:49.636Z,23.70
2022-11-21T13:00:12.231Z,23.90
2022-11-21T13:06:32.701Z,23.70
2022-11-21T13:12:46.178Z,23.50
2022-11-21T13:19:03.449Z,23.10
2022-11-21T13:25:24.747Z,23.20
2022-11-21T13:31:44.359Z,23.60
2022-11-21T13:38:22.511Z,23.90
2022-11-21T13:44:55.868Z,24.00
2022-11-21T13:51:25.872Z,23.60
2022-11-21T13:57:44.274Z,23.60
2022-11-21T14:04:19.292Z,23.90
2022-11-21T14:10:42.920Z,23.90
2022-11-21T14:16:56.703Z,23.70
2022-11-21T14:23:11.643Z,23.40
2022-11-21T14:29:33.317Z,23.70
2022-11-21T14:35:49.148Z,24.00
2022-11-21T14:42:04.344Z,24.30
2022-11-21T14:48:26.263Z,24.30
2022-11-21T14:54:39.281Z,24.20
2022-11-21T15:01:13.416Z,24.10
2022-11-21T15:07:32.085Z,23.90
2022-11-21T15:14:12.420Z,23.80
2022-11-21T15:20:22.135Z,24.20
2022-11-21T15:26:37.891Z,24.50
2022-11-21T15:33:10.162Z,24.60
2022-11-21T15:39:22.581Z,24.70
2022-11-21T15:45:36.259Z,24.80
2022-11-21T15:52:09.535Z,24.70
2022-11-21T15:58:21.484Z,24.80
2022-11-21T16:04:36.431Z,25.00
2022-11-21T16:11:00.438Z,25.10
2022-11-21T16:17:21.120Z,24.90
2022-11-21T16:23:36.255Z,24.90
2022-11-21T16:29:51.193Z,24.80
2022-11-21T16:36:08.821Z,24.90
2022-11-21T16:42:28.193Z,25.10
2022-11-21T16:48:38.074Z,25.30
2022-11-21T16:54:53.051Z,25.50
2022-11-21T17:01:18.703Z,25.60
2022-11-21T17:07:43.142Z,25.50
2022-11-21T17:14:02.167Z,25.40
2022-11-21T17:20:20.685Z,25.30
2022-11-21T17:26:37.427Z,25.40
2022-11-21T17:32:57.654Z,25.60
2022-11-21T17:39:13.638Z,25.70
2022-11-21T17:45:28.056Z,25.60
2022-11-21T17:51:42.970Z,25.50
2022-11-21T17:58:02.527Z,25.40
2022-11-21T18:04:23.307Z,25.30
2022-11-21T18:10:43.974Z,25.30
2022-11-21T18:17:01.552Z,25.20
2022-11-21T18:23:18.881Z,25.10
2022-11-21T18:29:37.016Z,25.30
2022-11-21T18:36:00.217Z,25.50
2022-11-21T18:42:20.431Z,25.60
2022-11-21T18:49:02.391Z,25.40
2022-11-21T18:54:59.009Z,25.20
2022-11-21T19:01:18.804Z,25.00
2022-11-21T19:07:38.933Z,24.90
2022-11-21T19:13:52.607Z,24.90
2022-11-21T19:20:16.937Z,25.20
2022-11-21T19:26:37.497Z,25.30
2022-11-21T19:32:51.396Z,25.20
2022-11-21T19:39:10.115Z,25.00
2022-11-21T19:45:26.277Z,24.80
2022-11-21T19:51:50.859Z,24.70
2022-11-21T19:58:14.265Z,24.90
2022-11-21T20:04:30.517Z,25.00
2022-11-21T20:10:46.001Z,24.80
2022-11-21T20:17:00.536Z,24.60
2022-11-21T20:23:19.304Z,24.50
2022-11-21T20:29:31.116Z,24.70
2022-11-21T20:35:49.662Z,24.90
2022-11-21T20:42:04.498Z,25.00
2022-11-21T20:48:20.453Z,24.70
2022-11-21T20:54:39.456Z,24.50
2022-11-21T21:00:56.836Z,24.40
2022-11-21T21:07:12.539Z,24.50
2022-11-21T21:13:31.013Z,24.80
2022-11-21T21:19:46.404Z,24.80
2022-11-21T21:26:01.153Z,24.60
2022-11-21T21:32:12.786Z,24.40
2022-11-21T21:38:31.547Z,24.30
2022-11-21T21:44:45.582Z,24.50
2022-11-21T21:51:00.754Z,24.70
2022-11-21T21:57:23.280Z,24.60
2022-11-21T22:03:42.071Z,24.40
2022-11-21T22:09:57.617Z,24.40
2022-11-21T22:16:11.995Z,24.60
2022-11-21T22:22:28.678Z,25.00
2022-11-21T22:28:42.087Z,25.10
2022-11-21T22:34:59.840Z,24.80
2022-11-21T22:41:17.332Z,24.60
2022-11-21T22:47:33.979Z,24.50
2022-11-21T22:53:48.344Z,24.50
2022-11-21T23:00:06.430Z,24.90
2022-11-21T23:06:23.110Z,24.80
2022-11-21T23:12:34.166Z,24.60
2022-11-21T23:18:53.785Z,24.40
2022-11-21T23:25:10.523Z,24.20
2022-11-21T23:31:24.372Z,24.50
2022-11-21T23:37:37.359Z,24.90
2022-11-21T23:43:51.462Z,24.90
2022-11-21T23:50:05.045Z,25.10
2022-11-21T23:56:28.198Z,25.30
